sensor_id;sensor_type;location;lat;lon;timestamp;temperature;humidity
9497;DHT22;4786;51.270;4.456;2023-06-22T00:01:43;20.80;99.90
9497;DHT22;4786;51.270;4.456;2023-06-22T00:04:09;20.80;99.90
9497;DHT22;4786;51.270;4.456;2023-06-22T00:06:35;20.70;99.90
9497;DHT22;4786;51.270;4.456;2023-06-22T00:09:01;20.70;99.90
9497;DHT22;4786;51.270;4.456;2023-06-22T00:11:26;20.70;99.90
9497;DHT22;4786;51.270;4.456;2023-06-22T00:13:53;20.70;99.90
9497;DHT22;4786;51.270;4.456;2023-06-22T00:16:19;20.60;99.90
9497;DHT22;4786;51.270;4.456;2023-06-22T00:18:45;20.60;99.90
9497;DHT22;4786;51.270;4.456;2023-06-22T00:21:13;20.50;99.90
9497;DHT22;4786;51.270;4.456;2023-06-22T00:23:39;20.50;99.90
9497;DHT22;4786;51.270;4.456;2023-06-22T00:26:05;20.50;99.90
9497;DHT22;4786;51.270;4.456;2023-06-22T00:28:31;20.50;99.90
9497;DHT22;4786;51.270;4.456;2023-06-22T00:30:57;20.50;99.90
9497;DHT22;4786;51.270;4.456;2023-06-22T00:33:23;20.30;99.90
9497;DHT22;4786;51.270;4.456;2023-06-22T00:35:49;20.20;99.90
9497;DHT22;4786;51.270;4.456;2023-06-22T00:38:18;20.10;99.90
9497;DHT22;4786;51.270;4.456;2023-06-22T00:40:44;20.10;99.90
9497;DHT22;4786;51.270;4.456;2023-06-22T00:43:10;20.10;99.90
9497;DHT22;4786;51.270;4.456;2023-06-22T00:45:36;20.10;99.90
9497;DHT22;4786;51.270;4.456;2023-06-22T00:48:02;20.00;99.90
9497;DHT22;4786;51.270;4.456;2023-06-22T00:50:30;20.10;99.90
9497;DHT22;4786;51.270;4.456;2023-06-22T00:53:01;20.10;99.90
9497;DHT22;4786;51.270;4.456;2023-06-22T00:55:30;20.10;99.90
9497;DHT22;4786;51.270;4.456;2023-06-22T00:57:56;20.10;99.90
9497;DHT22;4786;51.270;4.456;2023-06-22T01:00:25;20.00;99.90
9497;DHT22;4786;51.270;4.456;2023-06-22T01:02:52;20.10;99.90
9497;DHT22;4786;51.270;4.456;2023-06-22T01:05:19;20.10;99.90
9497;DHT22;4786;51.270;4.456;2023-06-22T01:07:50;20.10;99.90
9497;DHT22;4786;51.270;4.456;2023-06-22T01:12:50;19.90;99.90
9497;DHT22;4786;51.270;4.456;2023-06-22T01:15:41;19.80;99.90
9497;DHT22;4786;51.270;4.456;2023-06-22T01:18:08;19.80;99.90
9497;DHT22;4786;51.270;4.456;2023-06-22T01:20:35;19.80;99.90
9497;DHT22;4786;51.270;4.456;2023-06-22T01:31:28;19.60;99.90
9497;DHT22;4786;51.270;4.456;2023-06-22T01:33:59;19.60;99.90
9497;DHT22;4786;51.270;4.456;2023-06-22T01:36:27;19.60;99.90
9497;DHT22;4786;51.270;4.456;2023-06-22T01:38:53;19.60;99.90
9497;DHT22;4786;51.270;4.456;2023-06-22T01:41:20;19.50;99.90
9497;DHT22;4786;51.270;4.456;2023-06-22T01:43:48;19.50;99.90
9497;DHT22;4786;51.270;4.456;2023-06-22T01:46:15;19.50;99.90
9497;DHT22;4786;51.270;4.456;2023-06-22T01:48:42;19.50;99.90
9497;DHT22;4786;51.270;4.456;2023-06-22T01:51:08;19.50;99.90
9497;DHT22;4786;51.270;4.456;2023-06-22T01:53:34;19.40;99.90
9497;DHT22;4786;51.270;4.456;2023-06-22T01:56:00;19.40;99.90
9497;DHT22;4786;51.270;4.456;2023-06-22T01:58:27;19.40;99.90
9497;DHT22;4786;51.270;4.456;2023-06-22T02:01:12;19.30;99.90
9497;DHT22;4786;51.270;4.456;2023-06-22T02:03:52;19.30;99.90
9497;DHT22;4786;51.270;4.456;2023-06-22T02:06:33;19.40;99.90
9497;DHT22;4786;51.270;4.456;2023-06-22T02:09:02;19.20;99.90
9497;DHT22;4786;51.270;4.456;2023-06-22T02:11:31;19.20;99.90
9497;DHT22;4786;51.270;4.456;2023-06-22T02:13:58;19.20;99.90
9497;DHT22;4786;51.270;4.456;2023-06-22T02:16:25;19.20;99.90
9497;DHT22;4786;51.270;4.456;2023-06-22T02:18:55;19.30;99.90
9497;DHT22;4786;51.270;4.456;2023-06-22T02:21:23;19.30;99.90
9497;DHT22;4786;51.270;4.456;2023-06-22T02:23:49;19.30;99.90
9497;DHT22;4786;51.270;4.456;2023-06-22T02:26:17;19.20;99.90
9497;DHT22;4786;51.270;4.456;2023-06-22T02:28:43;19.20;99.90
9497;DHT22;4786;51.270;4.456;2023-06-22T02:31:09;19.10;99.90
9497;DHT22;4786;51.270;4.456;2023-06-22T02:33:36;19.00;99.90
9497;DHT22;4786;51.270;4.456;2023-06-22T02:36:01;18.90;99.90
9497;DHT22;4786;51.270;4.456;2023-06-22T02:38:33;19.00;99.90
9497;DHT22;4786;51.270;4.456;2023-06-22T02:41:00;18.90;99.90
9497;DHT22;4786;51.270;4.456;2023-06-22T02:43:26;18.90;99.90
9497;DHT22;4786;51.270;4.456;2023-06-22T02:45:52;18.80;99.90
9497;DHT22;4786;51.270;4.456;2023-06-22T02:48:17;18.80;99.90
9497;DHT22;4786;51.270;4.456;2023-06-22T02:50:44;18.90;99.90
9497;DHT22;4786;51.270;4.456;2023-06-22T02:53:09;18.90;99.90
9497;DHT22;4786;51.270;4.456;2023-06-22T02:55:36;18.90;99.90
9497;DHT22;4786;51.270;4.456;2023-06-22T02:58:01;18.90;99.90
9497;DHT22;4786;51.270;4.456;2023-06-22T03:00:31;18.90;99.90
9497;DHT22;4786;51.270;4.456;2023-06-22T03:02:57;19.00;99.90
9497;DHT22;4786;51.270;4.456;2023-06-22T03:05:24;18.90;99.90
9497;DHT22;4786;51.270;4.456;2023-06-22T03:07:50;18.90;99.90
9497;DHT22;4786;51.270;4.456;2023-06-22T03:10:16;18.80;99.90
9497;DHT22;4786;51.270;4.456;2023-06-22T03:12:43;18.80;99.90
9497;DHT22;4786;51.270;4.456;2023-06-22T03:15:10;18.80;99.90
9497;DHT22;4786;51.270;4.456;2023-06-22T03:17:38;18.80;99.90
9497;DHT22;4786;51.270;4.456;2023-06-22T03:20:07;18.80;99.90
9497;DHT22;4786;51.270;4.456;2023-06-22T03:22:38;18.80;99.90
9497;DHT22;4786;51.270;4.456;2023-06-22T03:25:05;18.80;99.90
9497;DHT22;4786;51.270;4.456;2023-06-22T03:27:39;18.70;99.90
9497;DHT22;4786;51.270;4.456;2023-06-22T03:30:08;18.80;99.90
9497;DHT22;4786;51.270;4.456;2023-06-22T03:32:34;18.70;99.90
9497;DHT22;4786;51.270;4.456;2023-06-22T03:35:01;18.70;99.90
9497;DHT22;4786;51.270;4.456;2023-06-22T03:37:28;18.70;99.90
9497;DHT22;4786;51.270;4.456;2023-06-22T03:39:53;18.70;99.90
9497;DHT22;4786;51.270;4.456;2023-06-22T03:42:19;18.70;99.90
9497;DHT22;4786;51.270;4.456;2023-06-22T03:44:46;18.80;99.90
9497;DHT22;4786;51.270;4.456;2023-06-22T03:47:12;18.80;99.90
9497;DHT22;4786;51.270;4.456;2023-06-22T03:49:39;18.80;99.90
9497;DHT22;4786;51.270;4.456;2023-06-22T03:52:05;18.90;99.90
9497;DHT22;4786;51.270;4.456;2023-06-22T03:54:31;18.90;99.90
9497;DHT22;4786;51.270;4.456;2023-06-22T03:56:58;18.90;99.90
9497;DHT22;4786;51.270;4.456;2023-06-22T03:59:25;19.00;99.90
9497;DHT22;4786;51.270;4.456;2023-06-22T04:01:51;19.00;99.90
9497;DHT22;4786;51.270;4.456;2023-06-22T04:04:20;19.00;99.90
9497;DHT22;4786;51.270;4.456;2023-06-22T04:06:46;19.00;99.90
9497;DHT22;4786;51.270;4.456;2023-06-22T04:09:12;19.10;99.90
9497;DHT22;4786;51.270;4.456;2023-06-22T04:11:38;19.20;99.90
9497;DHT22;4786;51.270;4.456;2023-06-22T04:14:05;19.20;99.90
9497;DHT22;4786;51.270;4.456;2023-06-22T04:16:30;19.30;99.90
9497;DHT22;4786;51.270;4.456;2023-06-22T04:18:56;19.20;99.90
9497;DHT22;4786;51.270;4.456;2023-06-22T04:21:22;19.20;99.90
9497;DHT22;4786;51.270;4.456;2023-06-22T04:23:48;19.20;99.90
9497;DHT22;4786;51.270;4.456;2023-06-22T04:26:14;19.20;99.90
9497;DHT22;4786;51.270;4.456;2023-06-22T04:28:41;19.20;99.90
9497;DHT22;4786;51.270;4.456;2023-06-22T04:31:07;19.20;99.90
9497;DHT22;4786;51.270;4.456;2023-06-22T04:33:33;19.20;99.90
9497;DHT22;4786;51.270;4.456;2023-06-22T04:35:59;19.40;99.90
9497;DHT22;4786;51.270;4.456;2023-06-22T04:38:29;19.30;99.90
9497;DHT22;4786;51.270;4.456;2023-06-22T04:40:58;19.40;99.90
9497;DHT22;4786;51.270;4.456;2023-06-22T04:43:26;19.30;99.90
9497;DHT22;4786;51.270;4.456;2023-06-22T04:45:56;19.40;99.90
9497;DHT22;4786;51.270;4.456;2023-06-22T04:48:22;19.50;99.90
9497;DHT22;4786;51.270;4.456;2023-06-22T04:50:48;19.50;99.90
9497;DHT22;4786;51.270;4.456;2023-06-22T04:53:15;19.50;99.90
9497;DHT22;4786;51.270;4.456;2023-06-22T04:55:40;19.60;99.90
9497;DHT22;4786;51.270;4.456;2023-06-22T04:58:07;19.60;99.90
9497;DHT22;4786;51.270;4.456;2023-06-22T05:00:33;19.60;99.90
9497;DHT22;4786;51.270;4.456;2023-06-22T05:03:01;19.60;99.90
9497;DHT22;4786;51.270;4.456;2023-06-22T05:05:29;19.70;99.90
9497;DHT22;4786;51.270;4.456;2023-06-22T05:07:56;19.70;99.90
9497;DHT22;4786;51.270;4.456;2023-06-22T05:10:26;19.90;99.90
9497;DHT22;4786;51.270;4.456;2023-06-22T05:12:52;20.00;99.90
9497;DHT22;4786;51.270;4.456;2023-06-22T05:15:17;20.20;99.90
9497;DHT22;4786;51.270;4.456;2023-06-22T05:17:47;20.40;99.90
9497;DHT22;4786;51.270;4.456;2023-06-22T05:20:13;20.80;99.90
9497;DHT22;4786;51.270;4.456;2023-06-22T05:22:40;21.50;99.90
9497;DHT22;4786;51.270;4.456;2023-06-22T05:25:09;22.60;99.90
9497;DHT22;4786;51.270;4.456;2023-06-22T05:27:35;23.70;99.90
9497;DHT22;4786;51.270;4.456;2023-06-22T05:30:09;24.70;99.90
9497;DHT22;4786;51.270;4.456;2023-06-22T05:32:36;25.80;99.90
9497;DHT22;4786;51.270;4.456;2023-06-22T05:35:03;26.20;99.90
9497;DHT22;4786;51.270;4.456;2023-06-22T05:37:29;26.40;99.90
9497;DHT22;4786;51.270;4.456;2023-06-22T05:39:56;26.20;99.90
9497;DHT22;4786;51.270;4.456;2023-06-22T05:42:22;25.70;99.90
9497;DHT22;4786;51.270;4.456;2023-06-22T05:44:49;25.10;99.90
9497;DHT22;4786;51.270;4.456;2023-06-22T05:47:15;24.70;99.90
9497;DHT22;4786;51.270;4.456;2023-06-22T05:49:42;24.30;99.90
9497;DHT22;4786;51.270;4.456;2023-06-22T05:52:08;23.90;99.90
9497;DHT22;4786;51.270;4.456;2023-06-22T05:54:34;23.70;99.90
9497;DHT22;4786;51.270;4.456;2023-06-22T05:57:01;23.60;99.90
9497;DHT22;4786;51.270;4.456;2023-06-22T05:59:26;23.40;99.90
9497;DHT22;4786;51.270;4.456;2023-06-22T06:01:52;23.30;99.90
9497;DHT22;4786;51.270;4.456;2023-06-22T06:04:18;23.30;99.90
9497;DHT22;4786;51.270;4.456;2023-06-22T06:06:44;23.30;99.90
9497;DHT22;4786;51.270;4.456;2023-06-22T06:09:13;23.30;99.90
9497;DHT22;4786;51.270;4.456;2023-06-22T06:11:39;23.30;99.90
9497;DHT22;4786;51.270;4.456;2023-06-22T06:14:06;23.30;99.90
9497;DHT22;4786;51.270;4.456;2023-06-22T06:16:32;23.40;99.90
9497;DHT22;4786;51.270;4.456;2023-06-22T06:18:57;23.40;99.90
9497;DHT22;4786;51.270;4.456;2023-06-22T06:21:24;23.60;99.90
9497;DHT22;4786;51.270;4.456;2023-06-22T06:23:50;23.80;99.90
9497;DHT22;4786;51.270;4.456;2023-06-22T06:26:16;23.90;99.90
9497;DHT22;4786;51.270;4.456;2023-06-22T06:28:43;23.90;99.90
9497;DHT22;4786;51.270;4.456;2023-06-22T06:31:09;23.90;99.90
9497;DHT22;4786;51.270;4.456;2023-06-22T06:33:35;23.80;99.90
9497;DHT22;4786;51.270;4.456;2023-06-22T06:36:01;23.50;99.90
9497;DHT22;4786;51.270;4.456;2023-06-22T06:38:29;23.50;99.90
9497;DHT22;4786;51.270;4.456;2023-06-22T06:40:56;23.40;99.90
9497;DHT22;4786;51.270;4.456;2023-06-22T06:43:22;23.40;99.90
9497;DHT22;4786;51.270;4.456;2023-06-22T06:45:49;23.40;99.90
9497;DHT22;4786;51.270;4.456;2023-06-22T06:48:15;23.40;99.90
9497;DHT22;4786;51.270;4.456;2023-06-22T06:50:41;23.20;99.90
9497;DHT22;4786;51.270;4.456;2023-06-22T06:53:09;23.30;99.90
9497;DHT22;4786;51.270;4.456;2023-06-22T06:55:35;23.30;99.90
9497;DHT22;4786;51.270;4.456;2023-06-22T06:58:02;23.30;99.90
9497;DHT22;4786;51.270;4.456;2023-06-22T07:00:29;23.30;99.90
9497;DHT22;4786;51.270;4.456;2023-06-22T07:02:55;23.30;99.90
9497;DHT22;4786;51.270;4.456;2023-06-22T07:05:21;23.30;99.90
9497;DHT22;4786;51.270;4.456;2023-06-22T07:07:47;23.20;99.90
9497;DHT22;4786;51.270;4.456;2023-06-22T07:10:13;23.20;99.90
9497;DHT22;4786;51.270;4.456;2023-06-22T07:12:40;23.10;99.90
9497;DHT22;4786;51.270;4.456;2023-06-22T07:15:08;23.10;99.90
9497;DHT22;4786;51.270;4.456;2023-06-22T07:17:34;23.00;99.90
9497;DHT22;4786;51.270;4.456;2023-06-22T07:20:01;22.90;99.90
9497;DHT22;4786;51.270;4.456;2023-06-22T07:22:28;22.90;99.90
9497;DHT22;4786;51.270;4.456;2023-06-22T07:24:54;22.90;99.90
9497;DHT22;4786;51.270;4.456;2023-06-22T07:27:19;22.90;99.90
9497;DHT22;4786;51.270;4.456;2023-06-22T07:29:46;22.80;99.90
9497;DHT22;4786;51.270;4.456;2023-06-22T07:32:12;22.50;99.90
9497;DHT22;4786;51.270;4.456;2023-06-22T07:34:39;22.40;99.90
9497;DHT22;4786;51.270;4.456;2023-06-22T07:37:05;22.40;99.90
9497;DHT22;4786;51.270;4.456;2023-06-22T07:39:30;22.40;99.90
9497;DHT22;4786;51.270;4.456;2023-06-22T07:41:57;22.30;99.90
9497;DHT22;4786;51.270;4.456;2023-06-22T07:44:23;22.20;99.90
9497;DHT22;4786;51.270;4.456;2023-06-22T07:46:49;22.20;99.90
9497;DHT22;4786;51.270;4.456;2023-06-22T07:49:17;22.30;99.90
9497;DHT22;4786;51.270;4.456;2023-06-22T07:51:43;22.30;99.90
9497;DHT22;4786;51.270;4.456;2023-06-22T07:54:10;22.30;99.90
9497;DHT22;4786;51.270;4.456;2023-06-22T07:56:36;22.40;99.90
9497;DHT22;4786;51.270;4.456;2023-06-22T07:59:02;22.50;99.90
9497;DHT22;4786;51.270;4.456;2023-06-22T08:01:29;22.50;99.90
9497;DHT22;4786;51.270;4.456;2023-06-22T08:03:55;22.50;99.90
9497;DHT22;4786;51.270;4.456;2023-06-22T08:06:21;22.50;99.90
9497;DHT22;4786;51.270;4.456;2023-06-22T08:08:47;22.50;99.90
9497;DHT22;4786;51.270;4.456;2023-06-22T08:11:14;22.60;99.90
9497;DHT22;4786;51.270;4.456;2023-06-22T08:13:40;22.50;99.90
9497;DHT22;4786;51.270;4.456;2023-06-22T08:16:06;22.60;99.90
9497;DHT22;4786;51.270;4.456;2023-06-22T08:18:33;22.60;99.90
9497;DHT22;4786;51.270;4.456;2023-06-22T08:20:58;22.60;99.90
9497;DHT22;4786;51.270;4.456;2023-06-22T08:23:25;22.60;99.90
9497;DHT22;4786;51.270;4.456;2023-06-22T08:25:50;22.60;99.90
9497;DHT22;4786;51.270;4.456;2023-06-22T08:28:17;22.60;99.90
9497;DHT22;4786;51.270;4.456;2023-06-22T08:30:42;22.70;99.90
9497;DHT22;4786;51.270;4.456;2023-06-22T08:33:08;22.60;99.90
9497;DHT22;4786;51.270;4.456;2023-06-22T08:35:34;22.50;99.90
9497;DHT22;4786;51.270;4.456;2023-06-22T08:38:00;22.50;99.90
9497;DHT22;4786;51.270;4.456;2023-06-22T08:40:27;22.50;99.90
9497;DHT22;4786;51.270;4.456;2023-06-22T08:42:54;22.40;99.90
9497;DHT22;4786;51.270;4.456;2023-06-22T08:45:20;22.50;99.90
9497;DHT22;4786;51.270;4.456;2023-06-22T08:47:46;22.50;99.90
9497;DHT22;4786;51.270;4.456;2023-06-22T08:50:12;22.60;99.90
9497;DHT22;4786;51.270;4.456;2023-06-22T08:52:39;22.70;99.90
9497;DHT22;4786;51.270;4.456;2023-06-22T08:55:07;22.70;99.90
9497;DHT22;4786;51.270;4.456;2023-06-22T08:57:34;22.60;99.90
9497;DHT22;4786;51.270;4.456;2023-06-22T08:59:59;22.70;99.90
9497;DHT22;4786;51.270;4.456;2023-06-22T09:02:26;22.70;99.90
9497;DHT22;4786;51.270;4.456;2023-06-22T09:04:56;22.80;99.90
9497;DHT22;4786;51.270;4.456;2023-06-22T09:07:23;22.80;99.90
9497;DHT22;4786;51.270;4.456;2023-06-22T09:09:50;22.80;99.90
9497;DHT22;4786;51.270;4.456;2023-06-22T09:12:17;22.90;99.90
9497;DHT22;4786;51.270;4.456;2023-06-22T09:14:45;22.80;99.90
9497;DHT22;4786;51.270;4.456;2023-06-22T09:17:13;22.80;99.90
9497;DHT22;4786;51.270;4.456;2023-06-22T09:19:39;22.80;99.90
9497;DHT22;4786;51.270;4.456;2023-06-22T09:22:05;22.70;99.90
9497;DHT22;4786;51.270;4.456;2023-06-22T09:24:32;22.60;99.90
9497;DHT22;4786;51.270;4.456;2023-06-22T09:26:58;22.60;99.90
9497;DHT22;4786;51.270;4.456;2023-06-22T09:29:24;22.60;99.90
9497;DHT22;4786;51.270;4.456;2023-06-22T09:31:51;22.60;99.90
9497;DHT22;4786;51.270;4.456;2023-06-22T09:34:19;22.50;99.90
9497;DHT22;4786;51.270;4.456;2023-06-22T09:36:46;22.50;99.90
9497;DHT22;4786;51.270;4.456;2023-06-22T09:39:12;22.50;99.90
9497;DHT22;4786;51.270;4.456;2023-06-22T09:41:37;22.50;99.90
9497;DHT22;4786;51.270;4.456;2023-06-22T09:44:03;22.50;99.90
9497;DHT22;4786;51.270;4.456;2023-06-22T09:46:29;22.60;99.90
9497;DHT22;4786;51.270;4.456;2023-06-22T09:48:55;22.70;99.90
9497;DHT22;4786;51.270;4.456;2023-06-22T09:51:22;22.60;99.90
9497;DHT22;4786;51.270;4.456;2023-06-22T09:53:49;22.70;99.90
9497;DHT22;4786;51.270;4.456;2023-06-22T09:56:15;22.80;99.90
9497;DHT22;4786;51.270;4.456;2023-06-22T09:58:46;22.90;99.90
9497;DHT22;4786;51.270;4.456;2023-06-22T10:01:12;22.90;99.90
9497;DHT22;4786;51.270;4.456;2023-06-22T10:03:58;23.00;99.90
9497;DHT22;4786;51.270;4.456;2023-06-22T10:06:24;23.00;99.90
9497;DHT22;4786;51.270;4.456;2023-06-22T10:08:51;23.00;99.90
9497;DHT22;4786;51.270;4.456;2023-06-22T10:11:17;23.10;99.90
9497;DHT22;4786;51.270;4.456;2023-06-22T10:13:43;23.00;99.90
9497;DHT22;4786;51.270;4.456;2023-06-22T10:16:09;23.10;99.90
9497;DHT22;4786;51.270;4.456;2023-06-22T10:18:35;23.00;99.90
9497;DHT22;4786;51.270;4.456;2023-06-22T10:21:01;23.00;99.90
9497;DHT22;4786;51.270;4.456;2023-06-22T10:23:28;23.00;99.90
9497;DHT22;4786;51.270;4.456;2023-06-22T10:25:53;22.90;99.90
9497;DHT22;4786;51.270;4.456;2023-06-22T10:28:19;22.90;99.90
9497;DHT22;4786;51.270;4.456;2023-06-22T10:30:45;22.90;99.90
9497;DHT22;4786;51.270;4.456;2023-06-22T10:33:11;22.90;99.90
9497;DHT22;4786;51.270;4.456;2023-06-22T10:35:38;22.80;99.90
9497;DHT22;4786;51.270;4.456;2023-06-22T10:38:04;22.80;99.90
9497;DHT22;4786;51.270;4.456;2023-06-22T10:40:31;22.80;99.90
9497;DHT22;4786;51.270;4.456;2023-06-22T10:42:56;22.80;99.90
9497;DHT22;4786;51.270;4.456;2023-06-22T10:45:22;22.70;99.90
9497;DHT22;4786;51.270;4.456;2023-06-22T10:47:49;22.70;99.90
9497;DHT22;4786;51.270;4.456;2023-06-22T10:50:14;22.70;99.90
9497;DHT22;4786;51.270;4.456;2023-06-22T10:52:40;22.70;99.90
9497;DHT22;4786;51.270;4.456;2023-06-22T10:55:09;22.70;99.90
9497;DHT22;4786;51.270;4.456;2023-06-22T10:57:35;22.70;99.90
9497;DHT22;4786;51.270;4.456;2023-06-22T11:00:02;22.60;99.90
9497;DHT22;4786;51.270;4.456;2023-06-22T11:02:31;22.60;99.90
9497;DHT22;4786;51.270;4.456;2023-06-22T11:04:57;22.50;99.90
9497;DHT22;4786;51.270;4.456;2023-06-22T11:07:26;22.40;99.90
9497;DHT22;4786;51.270;4.456;2023-06-22T11:09:53;22.30;99.90
9497;DHT22;4786;51.270;4.456;2023-06-22T11:12:18;22.30;99.90
9497;DHT22;4786;51.270;4.456;2023-06-22T11:14:44;22.30;99.90
9497;DHT22;4786;51.270;4.456;2023-06-22T11:17:10;22.20;99.90
9497;DHT22;4786;51.270;4.456;2023-06-22T11:19:36;22.20;99.90
9497;DHT22;4786;51.270;4.456;2023-06-22T11:22:02;22.20;99.90
9497;DHT22;4786;51.270;4.456;2023-06-22T11:24:28;22.20;99.90
9497;DHT22;4786;51.270;4.456;2023-06-22T11:26:53;22.20;99.90
9497;DHT22;4786;51.270;4.456;2023-06-22T11:29:19;22.10;99.90
9497;DHT22;4786;51.270;4.456;2023-06-22T11:31:45;22.10;99.90
9497;DHT22;4786;51.270;4.456;2023-06-22T11:34:11;22.10;99.90
9497;DHT22;4786;51.270;4.456;2023-06-22T11:36:37;22.10;99.90
9497;DHT22;4786;51.270;4.456;2023-06-22T11:39:04;22.10;99.90
9497;DHT22;4786;51.270;4.456;2023-06-22T11:41:30;22.00;99.90
9497;DHT22;4786;51.270;4.456;2023-06-22T11:43:56;22.00;99.90
9497;DHT22;4786;51.270;4.456;2023-06-22T11:46:22;21.90;99.90
9497;DHT22;4786;51.270;4.456;2023-06-22T11:48:48;21.90;99.90
9497;DHT22;4786;51.270;4.456;2023-06-22T11:51:13;22.00;99.90
9497;DHT22;4786;51.270;4.456;2023-06-22T11:53:39;21.90;99.90
9497;DHT22;4786;51.270;4.456;2023-06-22T11:56:05;21.80;99.90
9497;DHT22;4786;51.270;4.456;2023-06-22T11:58:31;21.80;99.90
9497;DHT22;4786;51.270;4.456;2023-06-22T12:00:57;21.80;99.90
9497;DHT22;4786;51.270;4.456;2023-06-22T12:03:23;21.60;99.90
9497;DHT22;4786;51.270;4.456;2023-06-22T12:05:50;21.60;99.90
9497;DHT22;4786;51.270;4.456;2023-06-22T12:08:19;21.50;99.90
9497;DHT22;4786;51.270;4.456;2023-06-22T12:10:45;21.50;99.90
9497;DHT22;4786;51.270;4.456;2023-06-22T12:13:11;21.20;99.90
9497;DHT22;4786;51.270;4.456;2023-06-22T12:15:36;21.00;99.90
9497;DHT22;4786;51.270;4.456;2023-06-22T12:18:02;21.00;99.90
9497;DHT22;4786;51.270;4.456;2023-06-22T12:20:28;20.90;99.90
9497;DHT22;4786;51.270;4.456;2023-06-22T12:22:55;20.80;99.90
9497;DHT22;4786;51.270;4.456;2023-06-22T12:25:23;20.70;99.90
9497;DHT22;4786;51.270;4.456;2023-06-22T12:27:49;20.70;99.90
9497;DHT22;4786;51.270;4.456;2023-06-22T12:30:16;20.80;99.90
9497;DHT22;4786;51.270;4.456;2023-06-22T12:32:42;20.70;99.90
9497;DHT22;4786;51.270;4.456;2023-06-22T12:35:08;20.80;99.90
9497;DHT22;4786;51.270;4.456;2023-06-22T12:37:40;20.80;99.90
9497;DHT22;4786;51.270;4.456;2023-06-22T12:40:06;20.80;99.90
9497;DHT22;4786;51.270;4.456;2023-06-22T12:42:32;20.80;99.90
9497;DHT22;4786;51.270;4.456;2023-06-22T12:44:58;20.90;99.90
9497;DHT22;4786;51.270;4.456;2023-06-22T12:47:25;20.90;99.90
9497;DHT22;4786;51.270;4.456;2023-06-22T12:49:50;20.90;99.90
9497;DHT22;4786;51.270;4.456;2023-06-22T12:52:16;20.90;99.90
9497;DHT22;4786;51.270;4.456;2023-06-22T12:54:42;20.90;99.90
9497;DHT22;4786;51.270;4.456;2023-06-22T12:57:07;20.90;99.90
9497;DHT22;4786;51.270;4.456;2023-06-22T12:59:33;20.90;99.90
9497;DHT22;4786;51.270;4.456;2023-06-22T13:01:59;21.00;99.90
9497;DHT22;4786;51.270;4.456;2023-06-22T13:04:25;21.00;99.90
9497;DHT22;4786;51.270;4.456;2023-06-22T13:06:51;21.00;99.90
9497;DHT22;4786;51.270;4.456;2023-06-22T13:09:20;21.00;99.90
9497;DHT22;4786;51.270;4.456;2023-06-22T13:11:45;21.10;99.90
9497;DHT22;4786;51.270;4.456;2023-06-22T13:14:11;21.40;99.90
9497;DHT22;4786;51.270;4.456;2023-06-22T13:16:37;21.10;99.90
9497;DHT22;4786;51.270;4.456;2023-06-22T13:19:03;21.20;99.90
9497;DHT22;4786;51.270;4.456;2023-06-22T13:21:30;21.20;99.90
9497;DHT22;4786;51.270;4.456;2023-06-22T13:23:56;21.20;99.90
9497;DHT22;4786;51.270;4.456;2023-06-22T13:26:22;21.20;99.90
9497;DHT22;4786;51.270;4.456;2023-06-22T13:28:48;21.10;99.90
9497;DHT22;4786;51.270;4.456;2023-06-22T13:31:13;21.10;99.90
9497;DHT22;4786;51.270;4.456;2023-06-22T13:33:39;21.00;99.90
9497;DHT22;4786;51.270;4.456;2023-06-22T13:36:06;21.00;99.90
9497;DHT22;4786;51.270;4.456;2023-06-22T13:38:33;21.00;99.90
9497;DHT22;4786;51.270;4.456;2023-06-22T13:40:59;21.00;99.90
9497;DHT22;4786;51.270;4.456;2023-06-22T13:43:27;21.00;99.90
9497;DHT22;4786;51.270;4.456;2023-06-22T13:45:53;21.00;99.90
9497;DHT22;4786;51.270;4.456;2023-06-22T13:48:19;21.10;99.90
9497;DHT22;4786;51.270;4.456;2023-06-22T13:50:45;21.10;99.90
9497;DHT22;4786;51.270;4.456;2023-06-22T13:53:11;21.10;99.90
9497;DHT22;4786;51.270;4.456;2023-06-22T13:55:37;21.10;99.90
9497;DHT22;4786;51.270;4.456;2023-06-22T13:58:03;21.10;99.90
9497;DHT22;4786;51.270;4.456;2023-06-22T14:00:29;21.10;99.90
9497;DHT22;4786;51.270;4.456;2023-06-22T14:02:55;21.00;99.90
9497;DHT22;4786;51.270;4.456;2023-06-22T14:05:21;21.00;99.90
9497;DHT22;4786;51.270;4.456;2023-06-22T14:07:47;21.00;99.90
9497;DHT22;4786;51.270;4.456;2023-06-22T14:10:13;21.00;99.90
9497;DHT22;4786;51.270;4.456;2023-06-22T14:12:38;21.00;99.90
9497;DHT22;4786;51.270;4.456;2023-06-22T14:15:04;21.00;99.90
9497;DHT22;4786;51.270;4.456;2023-06-22T14:17:30;21.10;99.90
9497;DHT22;4786;51.270;4.456;2023-06-22T14:19:57;21.00;99.90
9497;DHT22;4786;51.270;4.456;2023-06-22T14:22:22;21.00;99.90
9497;DHT22;4786;51.270;4.456;2023-06-22T14:24:49;20.90;99.90
9497;DHT22;4786;51.270;4.456;2023-06-22T14:27:15;21.00;99.90
9497;DHT22;4786;51.270;4.456;2023-06-22T14:29:41;20.90;99.90
9497;DHT22;4786;51.270;4.456;2023-06-22T14:32:07;21.00;99.90
9497;DHT22;4786;51.270;4.456;2023-06-22T14:34:34;21.00;99.90
9497;DHT22;4786;51.270;4.456;2023-06-22T14:37:06;21.00;99.90
9497;DHT22;4786;51.270;4.456;2023-06-22T14:39:32;21.00;99.90
9497;DHT22;4786;51.270;4.456;2023-06-22T14:41:58;21.00;99.90
9497;DHT22;4786;51.270;4.456;2023-06-22T14:44:26;21.00;99.90
9497;DHT22;4786;51.270;4.456;2023-06-22T14:46:51;21.00;99.90
9497;DHT22;4786;51.270;4.456;2023-06-22T14:49:17;21.00;99.90
9497;DHT22;4786;51.270;4.456;2023-06-22T14:51:43;20.90;99.90
9497;DHT22;4786;51.270;4.456;2023-06-22T14:54:08;20.90;99.90
9497;DHT22;4786;51.270;4.456;2023-06-22T14:56:34;20.90;99.90
9497;DHT22;4786;51.270;4.456;2023-06-22T14:59:00;21.00;99.90
9497;DHT22;4786;51.270;4.456;2023-06-22T15:01:26;20.90;99.90
9497;DHT22;4786;51.270;4.456;2023-06-22T15:03:51;21.00;99.90
9497;DHT22;4786;51.270;4.456;2023-06-22T15:06:17;20.90;99.90
9497;DHT22;4786;51.270;4.456;2023-06-22T15:08:44;20.90;99.90
9497;DHT22;4786;51.270;4.456;2023-06-22T15:11:10;20.80;99.90
9497;DHT22;4786;51.270;4.456;2023-06-22T15:13:39;20.90;99.90
9497;DHT22;4786;51.270;4.456;2023-06-22T15:16:05;20.90;99.90
9497;DHT22;4786;51.270;4.456;2023-06-22T15:18:31;20.90;99.90
9497;DHT22;4786;51.270;4.456;2023-06-22T15:20:59;20.90;99.90
9497;DHT22;4786;51.270;4.456;2023-06-22T15:23:27;21.00;99.90
9497;DHT22;4786;51.270;4.456;2023-06-22T15:25:54;21.00;99.90
9497;DHT22;4786;51.270;4.456;2023-06-22T15:28:20;21.10;99.90
9497;DHT22;4786;51.270;4.456;2023-06-22T15:31:06;21.00;99.90
9497;DHT22;4786;51.270;4.456;2023-06-22T15:33:32;21.00;99.90
9497;DHT22;4786;51.270;4.456;2023-06-22T15:35:58;21.00;99.90
9497;DHT22;4786;51.270;4.456;2023-06-22T15:38:29;21.00;99.90
9497;DHT22;4786;51.270;4.456;2023-06-22T15:40:56;21.10;99.90
9497;DHT22;4786;51.270;4.456;2023-06-22T15:43:22;21.10;99.90
9497;DHT22;4786;51.270;4.456;2023-06-22T15:45:47;21.00;99.90
9497;DHT22;4786;51.270;4.456;2023-06-22T15:48:14;21.00;99.90
9497;DHT22;4786;51.270;4.456;2023-06-22T15:50:41;21.10;99.90
9497;DHT22;4786;51.270;4.456;2023-06-22T15:53:06;21.10;99.90
9497;DHT22;4786;51.270;4.456;2023-06-22T15:55:32;21.10;99.90
9497;DHT22;4786;51.270;4.456;2023-06-22T15:58:00;21.20;99.90
9497;DHT22;4786;51.270;4.456;2023-06-22T16:00:27;21.20;99.90
9497;DHT22;4786;51.270;4.456;2023-06-22T16:02:52;21.20;99.90
9497;DHT22;4786;51.270;4.456;2023-06-22T16:05:18;21.10;99.90
9497;DHT22;4786;51.270;4.456;2023-06-22T16:07:44;21.10;99.90
9497;DHT22;4786;51.270;4.456;2023-06-22T16:10:10;21.20;99.90